createdAt,value
2019-04-30T00:01:17.403Z,19.60
2019-04-30T00:03:46.100Z,20.17
2019-04-30T00:06:15.679Z,20.47
2019-04-30T00:08:45.241Z,20.60
2019-04-30T00:11:15.895Z,18.47
2019-04-30T00:13:45.994Z,21.53
2019-04-30T00:16:15.482Z,20.83
2019-04-30T00:18:55.615Z,22.40
2019-04-30T00:21:18.665Z,21.20
2019-04-30T00:23:46.868Z,20.80
2019-04-30T00:26:17.279Z,22.90
2019-04-30T00:28:47.866Z,20.33
2019-04-30T00:31:23.493Z,19.20
2019-04-30T00:33:48.251Z,21.60
2019-04-30T00:36:17.665Z,20.47
2019-04-30T00:38:46.977Z,21.93
2019-04-30T00:41:16.394Z,21.70
2019-04-30T00:43:49.278Z,23.50
2019-04-30T00:46:24.765Z,21.57
2019-04-30T00:48:47.917Z,21.60
2019-04-30T00:51:21.237Z,22.53
2019-04-30T00:53:51.202Z,22.13
2019-04-30T00:56:19.951Z,20.77
2019-04-30T00:58:50.413Z,21.47
2019-04-30T01:01:25.277Z,22.63
2019-04-30T01:04:05.567Z,23.43
2019-04-30T01:06:35.070Z,20.83
2019-04-30T01:09:08.429Z,23.37
2019-04-30T01:11:39.778Z,23.63
2019-04-30T01:14:06.926Z,22.50
2019-04-30T01:16:36.300Z,22.20
2019-04-30T01:19:11.387Z,22.83
2019-04-30T01:21:40.196Z,22.33
2019-04-30T01:24:08.944Z,23.40
2019-04-30T01:26:39.364Z,23.60
2019-04-30T01:29:10.285Z,23.10
2019-04-30T01:31:40.828Z,24.00
2019-04-30T01:34:14.072Z,24.97
2019-04-30T01:36:43.510Z,23.30
2019-04-30T01:39:12.522Z,25.37
2019-04-30T01:41:41.857Z,24.10
2019-04-30T01:44:12.123Z,24.43
2019-04-30T01:46:43.309Z,25.37
2019-04-30T01:49:12.717Z,23.57
2019-04-30T01:51:42.045Z,23.70
2019-04-30T01:54:13.646Z,25.87
2019-04-30T01:56:44.128Z,25.70
2019-04-30T01:59:15.083Z,24.07
2019-04-30T02:01:46.058Z,24.40
2019-04-30T02:04:15.446Z,23.20
2019-04-30T02:06:44.779Z,24.17
2019-04-30T02:09:14.086Z,26.00
2019-04-30T02:11:43.495Z,25.47
2019-04-30T02:14:12.803Z,24.57
2019-04-30T02:16:42.212Z,27.43
2019-04-30T02:19:11.520Z,27.10
2019-04-30T02:21:40.836Z,26.90
2019-04-30T02:24:11.153Z,24.70
2019-04-30T02:26:40.661Z,24.20
2019-04-30T02:29:09.998Z,24.20
2019-04-30T02:31:40.746Z,24.93
2019-04-30T02:34:22.162Z,26.67
2019-04-30T02:36:56.367Z,26.20
2019-04-30T02:39:25.773Z,24.40
2019-04-30T02:41:56.225Z,24.10
2019-04-30T02:44:26.505Z,25.57
2019-04-30T02:47:00.130Z,24.20
2019-04-30T02:49:30.519Z,25.30
2019-04-30T02:52:02.976Z,27.63
2019-04-30T02:54:34.919Z,25.73
2019-04-30T02:57:05.872Z,26.07
2019-04-30T02:59:36.853Z,26.23
2019-04-30T03:02:06.157Z,28.10
2019-04-30T03:04:35.492Z,26.20
2019-04-30T03:07:04.871Z,25.60
2019-04-30T03:09:34.273Z,26.80
2019-04-30T03:12:03.739Z,26.13
2019-04-30T03:14:33.070Z,25.50
2019-04-30T03:17:04.032Z,23.40
2019-04-30T03:19:47.048Z,25.77
2019-04-30T03:22:20.322Z,24.70
2019-04-30T03:24:50.112Z,25.27
2019-04-30T03:27:21.018Z,24.00
2019-04-30T03:29:50.712Z,24.23
2019-04-30T03:32:22.412Z,24.87
2019-04-30T03:34:51.950Z,24.87
2019-04-30T03:37:21.670Z,25.57
2019-04-30T03:39:51.021Z,23.03
2019-04-30T03:42:20.327Z,26.20
2019-04-30T03:44:49.916Z,25.07
2019-04-30T03:47:20.153Z,24.90
2019-04-30T03:49:50.088Z,22.33
2019-04-30T03:52:19.889Z,22.93
2019-04-30T03:54:49.609Z,24.20
2019-04-30T03:57:20.518Z,23.17
2019-04-30T03:59:50.220Z,25.10
2019-04-30T04:02:21.143Z,24.43
2019-04-30T04:04:52.522Z,23.67
2019-04-30T04:07:39.924Z,23.40
2019-04-30T04:10:19.298Z,24.20
2019-04-30T04:12:49.866Z,23.73
2019-04-30T04:15:19.998Z,24.40
2019-04-30T04:17:50.417Z,21.07
2019-04-30T04:20:20.442Z,24.07
2019-04-30T04:22:50.048Z,23.37
2019-04-30T04:25:20.473Z,24.87
2019-04-30T04:27:50.979Z,23.50
2019-04-30T04:30:20.715Z,22.13
2019-04-30T04:32:50.284Z,24.27
2019-04-30T04:35:20.109Z,22.13
2019-04-30T04:37:49.888Z,23.17
2019-04-30T04:40:20.986Z,21.10
2019-04-30T04:42:50.517Z,23.67
2019-04-30T04:45:20.078Z,22.67
2019-04-30T04:47:50.334Z,23.63
2019-04-30T04:50:20.395Z,24.97
2019-04-30T04:52:49.909Z,23.20
2019-04-30T04:55:21.738Z,23.60
2019-04-30T04:57:50.323Z,22.20
2019-04-30T05:00:19.751Z,25.10
2019-04-30T05:02:59.867Z,23.73
2019-04-30T05:05:29.866Z,23.43
2019-04-30T05:07:59.405Z,22.90
2019-04-30T05:10:29.216Z,23.00
2019-04-30T05:12:59.255Z,21.30
2019-04-30T05:15:29.515Z,21.23
2019-04-30T05:17:59.352Z,22.73
2019-04-30T05:20:29.281Z,23.00
2019-04-30T05:22:58.680Z,23.03
2019-04-30T05:25:29.594Z,23.20
2019-04-30T05:27:59.011Z,22.60
2019-04-30T05:30:29.529Z,23.30
2019-04-30T05:32:58.998Z,21.80
2019-04-30T05:35:39.887Z,24.40
2019-04-30T05:38:09.427Z,21.27
2019-04-30T05:40:39.850Z,22.30
2019-04-30T05:43:11.406Z,24.43
2019-04-30T05:45:41.048Z,25.17
2019-04-30T05:48:10.370Z,24.80
2019-04-30T05:50:39.707Z,23.30
2019-04-30T05:53:09.146Z,23.80
2019-04-30T05:55:39.535Z,24.60
2019-04-30T05:58:09.481Z,23.73
2019-04-30T06:00:39.981Z,24.87
2019-04-30T06:03:09.757Z,24.47
2019-04-30T06:05:39.469Z,25.70
2019-04-30T06:08:09.337Z,24.57
2019-04-30T06:10:46.626Z,22.17
2019-04-30T06:13:31.854Z,25.00
2019-04-30T06:16:02.037Z,23.40
2019-04-30T06:18:31.429Z,26.03
2019-04-30T06:21:00.931Z,23.10
2019-04-30T06:23:30.265Z,23.00
2019-04-30T06:26:09.001Z,22.40
2019-04-30T06:28:32.230Z,23.27
2019-04-30T06:31:01.716Z,22.63
2019-04-30T06:33:31.174Z,24.37
2019-04-30T06:36:01.554Z,23.33
2019-04-30T06:38:30.872Z,23.30
2019-04-30T06:41:00.210Z,22.10
2019-04-30T06:43:30.180Z,24.57
2019-04-30T06:45:59.564Z,22.30
2019-04-30T06:48:30.856Z,23.07
2019-04-30T06:51:00.254Z,22.90
2019-04-30T06:53:29.590Z,22.73
2019-04-30T06:55:59.129Z,22.93
2019-04-30T06:58:29.163Z,22.03
2019-04-30T07:00:59.557Z,23.33
2019-04-30T07:03:29.208Z,22.87
2019-04-30T07:05:58.718Z,21.60
2019-04-30T07:08:39.675Z,22.10
2019-04-30T07:11:21.579Z,21.73
2019-04-30T07:13:52.315Z,21.97
2019-04-30T07:16:21.784Z,23.00
2019-04-30T07:18:51.200Z,24.60
2019-04-30T07:21:20.528Z,21.23
2019-04-30T07:23:49.936Z,23.70
2019-04-30T07:26:24.224Z,22.13
2019-04-30T07:28:54.841Z,22.13
2019-04-30T07:31:21.406Z,23.60
2019-04-30T07:33:53.717Z,22.23
2019-04-30T07:36:21.798Z,20.67
2019-04-30T07:38:56.174Z,21.43
2019-04-30T07:41:22.193Z,22.40
2019-04-30T07:43:51.535Z,21.83
2019-04-30T07:46:20.867Z,23.10
2019-04-30T07:48:50.423Z,21.77
2019-04-30T07:51:20.979Z,21.80
2019-04-30T07:53:50.852Z,21.30
2019-04-30T07:56:27.984Z,21.67
2019-04-30T07:58:51.229Z,21.13
2019-04-30T08:01:20.631Z,23.20
2019-04-30T08:04:00.507Z,22.27
2019-04-30T08:06:31.227Z,21.10
2019-04-30T08:09:01.445Z,20.57
2019-04-30T08:11:34.666Z,21.60
2019-04-30T08:14:02.566Z,20.17
2019-04-30T08:16:32.298Z,20.33
2019-04-30T08:19:01.717Z,21.43
2019-04-30T08:21:31.039Z,22.07
2019-04-30T08:24:01.132Z,22.93
2019-04-30T08:26:30.574Z,21.93
2019-04-30T08:28:59.984Z,22.00
2019-04-30T08:31:29.378Z,20.93
2019-04-30T08:33:59.213Z,21.97
2019-04-30T08:36:29.798Z,22.10
2019-04-30T08:38:59.817Z,21.43
2019-04-30T08:41:29.474Z,20.63
2019-04-30T08:43:59.774Z,22.20
2019-04-30T08:46:29.409Z,22.00
2019-04-30T08:48:58.963Z,20.80
2019-04-30T08:51:30.945Z,21.17
2019-04-30T08:53:59.976Z,22.07
2019-04-30T08:56:29.742Z,22.00
2019-04-30T08:58:59.485Z,21.40
2019-04-30T09:01:29.531Z,19.20
2019-04-30T09:03:59.771Z,21.63
2019-04-30T09:06:30.199Z,22.67
2019-04-30T09:09:00.197Z,20.30
2019-04-30T09:11:42.894Z,19.57
2019-04-30T09:14:00.645Z,19.80
2019-04-30T09:16:30.060Z,22.03
2019-04-30T09:18:59.637Z,21.77
2019-04-30T09:21:30.028Z,20.47
2019-04-30T09:23:59.652Z,23.37
2019-04-30T09:26:29.185Z,22.00
2019-04-30T09:28:59.371Z,20.90
2019-04-30T09:31:29.602Z,20.33
2019-04-30T09:34:01.013Z,19.57
2019-04-30T09:36:30.256Z,20.90
2019-04-30T09:39:01.512Z,22.97
2019-04-30T09:41:30.800Z,20.50
2019-04-30T09:44:00.241Z,22.37
2019-04-30T09:46:30.043Z,21.00
2019-04-30T09:48:59.917Z,20.80
2019-04-30T09:51:30.670Z,20.70
2019-04-30T09:54:03.445Z,22.07
2019-04-30T09:56:31.624Z,23.37
2019-04-30T09:59:00.967Z,18.70
2019-04-30T10:01:32.743Z,20.97
2019-04-30T10:04:03.761Z,22.43
2019-04-30T10:06:39.858Z,20.67
2019-04-30T10:09:06.678Z,20.20
2019-04-30T10:11:37.997Z,19.90
2019-04-30T10:14:07.416Z,19.37
2019-04-30T10:16:39.604Z,20.60
2019-04-30T10:19:10.275Z,19.27
2019-04-30T10:21:39.810Z,22.10
2019-04-30T10:24:15.242Z,21.43
2019-04-30T10:26:40.275Z,20.10
2019-04-30T10:29:09.687Z,20.30
2019-04-30T10:31:39.127Z,19.87
2019-04-30T10:34:09.666Z,19.07
2019-04-30T10:36:41.506Z,20.47
2019-04-30T10:39:10.839Z,20.33
2019-04-30T10:41:40.167Z,19.07
2019-04-30T10:44:09.732Z,20.77
2019-04-30T10:46:39.235Z,19.13
2019-04-30T10:49:09.162Z,19.37
2019-04-30T10:51:38.890Z,20.00
2019-04-30T10:54:08.893Z,18.83
2019-04-30T10:56:38.528Z,19.07
2019-04-30T10:59:07.841Z,17.60
2019-04-30T11:01:39.048Z,18.50
2019-04-30T11:04:08.737Z,18.77
2019-04-30T11:06:38.147Z,20.60
2019-04-30T11:09:08.793Z,19.50
2019-04-30T11:11:39.778Z,18.00
2019-04-30T11:14:09.279Z,18.07
2019-04-30T11:16:38.707Z,20.53
2019-04-30T11:19:09.371Z,18.83
2019-04-30T11:21:39.214Z,19.67
2019-04-30T11:24:09.361Z,19.00
2019-04-30T11:26:40.160Z,18.83
2019-04-30T11:29:10.492Z,19.60
2019-04-30T11:31:47.939Z,18.50
2019-04-30T11:34:17.563Z,18.77
2019-04-30T11:36:46.897Z,18.57
2019-04-30T11:39:18.624Z,18.10
2019-04-30T11:41:48.216Z,16.93
2019-04-30T11:44:28.448Z,18.77
2019-04-30T11:47:02.643Z,17.27
2019-04-30T11:49:32.007Z,17.33
2019-04-30T11:52:01.348Z,17.77
2019-04-30T11:54:30.770Z,18.17
2019-04-30T11:57:00.114Z,18.13
2019-04-30T11:59:29.825Z,17.50
2019-04-30T12:02:00.935Z,17.07
2019-04-30T12:04:30.306Z,18.50
2019-04-30T12:07:01.290Z,17.80
2019-04-30T12:09:40.989Z,17.77
2019-04-30T12:12:10.392Z,19.70
2019-04-30T12:14:39.850Z,16.73
2019-04-30T12:17:09.193Z,16.67
2019-04-30T12:19:38.894Z,16.13
2019-04-30T12:22:08.435Z,16.93
2019-04-30T12:24:38.774Z,17.90
2019-04-30T12:27:08.443Z,16.30
2019-04-30T12:29:39.647Z,16.70
2019-04-30T12:32:08.837Z,15.53
2019-04-30T12:34:38.161Z,16.70
2019-04-30T12:37:10.567Z,16.73
2019-04-30T12:39:39.483Z,16.50
2019-04-30T12:42:08.879Z,14.07
2019-04-30T12:44:40.028Z,15.10
2019-04-30T12:47:09.724Z,14.93
2019-04-30T12:49:52.487Z,14.27
2019-04-30T12:52:41.426Z,12.97
2019-04-30T12:55:15.940Z,12.77
2019-04-30T12:57:58.254Z,12.83
2019-04-30T13:00:19.527Z,12.50
2019-04-30T13:02:49.042Z,11.73
2019-04-30T13:05:18.914Z,11.27
2019-04-30T13:07:50.031Z,11.40
2019-04-30T13:10:20.554Z,11.20
2019-04-30T13:12:50.934Z,11.17
2019-04-30T13:15:20.579Z,12.80
2019-04-30T13:17:50.190Z,12.70
2019-04-30T13:20:23.799Z,12.10
2019-04-30T13:22:51.130Z,12.43
2019-04-30T13:25:30.363Z,13.77
2019-04-30T13:27:53.285Z,9.90
2019-04-30T13:30:42.610Z,12.20
2019-04-30T13:33:13.594Z,10.87
2019-04-30T13:35:42.923Z,21.30
2019-04-30T13:38:29.247Z,21.50
2019-04-30T13:41:05.956Z,10.47
2019-04-30T13:43:39.936Z,10.10
2019-04-30T13:46:08.598Z,10.60
2019-04-30T13:48:38.191Z,9.90
2019-04-30T13:51:07.520Z,10.10
2019-04-30T13:53:36.982Z,10.40
2019-04-30T13:56:06.373Z,11.17
2019-04-30T13:58:35.727Z,10.73
2019-04-30T14:01:06.263Z,12.30
2019-04-30T14:03:49.348Z,11.33
2019-04-30T14:06:20.316Z,12.13
2019-04-30T14:08:51.293Z,10.27
2019-04-30T14:11:20.900Z,10.90
2019-04-30T14:13:50.242Z,10.87
2019-04-30T14:16:20.227Z,11.17
2019-04-30T14:18:49.850Z,9.60
2019-04-30T14:21:33.165Z,10.30
2019-04-30T14:23:59.056Z,10.87
2019-04-30T14:26:29.104Z,11.30
2019-04-30T14:28:58.887Z,10.40
2019-04-30T14:31:30.742Z,9.70
2019-04-30T14:34:00.254Z,10.10
2019-04-30T14:36:29.616Z,11.60
2019-04-30T14:39:13.649Z,10.23
2019-04-30T14:41:32.474Z,11.03
2019-04-30T14:44:09.329Z,11.33
2019-04-30T14:46:57.356Z,9.70
2019-04-30T14:49:56.449Z,9.23
2019-04-30T14:52:17.037Z,9.33
2019-04-30T14:54:50.890Z,9.27
2019-04-30T14:57:21.916Z,9.67
2019-04-30T14:59:52.894Z,9.60
2019-04-30T15:02:29.725Z,10.43
2019-04-30T15:04:59.242Z,10.43
2019-04-30T15:07:29.541Z,9.73
2019-04-30T15:09:59.058Z,17.50
2019-04-30T15:12:28.385Z,9.30
2019-04-30T15:14:59.204Z,9.80
2019-04-30T15:17:28.858Z,9.93
2019-04-30T15:19:58.792Z,9.60
2019-04-30T15:22:29.038Z,7.70
2019-04-30T15:25:00.174Z,9.57
2019-04-30T15:27:29.799Z,9.43
2019-04-30T15:29:59.135Z,59.80
2019-04-30T15:32:28.700Z,9.33
2019-04-30T15:34:58.945Z,10.90
2019-04-30T15:37:28.707Z,9.73
2019-04-30T15:39:59.138Z,9.10
2019-04-30T15:42:28.744Z,10.00
2019-04-30T15:44:59.448Z,9.70
2019-04-30T15:47:28.971Z,11.33
2019-04-30T15:50:02.201Z,9.80
2019-04-30T15:52:33.030Z,9.37
2019-04-30T15:55:04.512Z,10.97
2019-04-30T15:57:34.054Z,9.70
2019-04-30T16:00:04.912Z,8.97
2019-04-30T16:02:39.844Z,8.80
2019-04-30T16:05:13.776Z,10.00
2019-04-30T16:07:44.922Z,9.30
2019-04-30T16:10:28.614Z,10.90
2019-04-30T16:13:11.975Z,10.47
2019-04-30T16:15:41.294Z,9.67
2019-04-30T16:18:10.987Z,9.87
2019-04-30T16:20:40.392Z,11.30
2019-04-30T16:23:09.744Z,9.30
2019-04-30T16:25:39.162Z,10.50
2019-04-30T16:28:10.148Z,10.87
2019-04-30T16:30:39.679Z,9.50
2019-04-30T16:33:10.684Z,9.27
2019-04-30T16:35:40.134Z,9.13
2019-04-30T16:38:15.430Z,9.80
2019-04-30T16:40:44.774Z,10.00
2019-04-30T16:43:14.128Z,10.40
2019-04-30T16:45:43.476Z,9.60
2019-04-30T16:48:15.625Z,9.37
2019-04-30T16:50:44.997Z,8.40
2019-04-30T16:53:14.316Z,9.80
2019-04-30T16:55:43.748Z,10.23
2019-04-30T16:58:13.149Z,10.47
2019-04-30T17:00:42.796Z,9.60
2019-04-30T17:03:13.757Z,9.03
2019-04-30T17:06:07.425Z,9.90
2019-04-30T17:08:44.133Z,9.70
2019-04-30T17:11:17.535Z,11.50
2019-04-30T17:13:54.273Z,11.00
2019-04-30T17:16:24.734Z,11.17
2019-04-30T17:18:54.060Z,9.60
2019-04-30T17:21:23.457Z,10.40
2019-04-30T17:23:52.808Z,9.50
2019-04-30T17:26:22.275Z,8.50
2019-04-30T17:28:51.738Z,10.00
2019-04-30T17:31:21.165Z,8.90
2019-04-30T17:33:50.499Z,9.30
2019-04-30T17:36:19.895Z,9.30
2019-04-30T17:38:49.221Z,10.23
2019-04-30T17:41:18.648Z,9.00
2019-04-30T17:43:49.585Z,9.83
2019-04-30T17:46:20.168Z,9.73
2019-04-30T17:48:49.700Z,9.13
2019-04-30T17:51:19.251Z,9.33
2019-04-30T17:54:06.319Z,8.53
2019-04-30T17:56:35.730Z,9.37
2019-04-30T17:59:05.246Z,8.90
2019-04-30T18:01:34.661Z,8.90
2019-04-30T18:04:04.052Z,9.13
2019-04-30T18:06:33.482Z,9.20
2019-04-30T18:09:10.729Z,9.27
2019-04-30T18:11:39.780Z,9.83
2019-04-30T18:14:09.097Z,9.53
2019-04-30T18:16:38.798Z,8.47
2019-04-30T18:19:09.881Z,8.90
2019-04-30T18:21:44.018Z,10.17
2019-04-30T18:24:20.764Z,10.27
2019-04-30T18:26:51.748Z,9.37
2019-04-30T18:29:21.058Z,11.67
2019-04-30T18:31:50.488Z,10.93
2019-04-30T18:34:19.810Z,10.63
2019-04-30T18:36:51.263Z,10.43
2019-04-30T18:39:20.267Z,11.23
2019-04-30T18:41:49.627Z,10.80
2019-04-30T18:44:19.563Z,10.53
2019-04-30T18:46:49.196Z,10.97
2019-04-30T18:49:18.826Z,11.47
2019-04-30T18:51:49.260Z,11.50
2019-04-30T18:54:20.911Z,11.60
2019-04-30T18:56:51.202Z,11.50
2019-04-30T18:59:20.518Z,11.40
2019-04-30T19:01:49.913Z,11.93
2019-04-30T19:04:19.253Z,10.70
2019-04-30T19:06:49.143Z,11.20
2019-04-30T19:09:35.805Z,11.40
2019-04-30T19:12:08.554Z,10.20
2019-04-30T19:14:39.620Z,12.07
2019-04-30T19:17:10.550Z,11.10
2019-04-30T19:19:47.584Z,11.73
2019-04-30T19:22:18.705Z,11.93
2019-04-30T19:24:58.149Z,11.80
2019-04-30T19:27:19.296Z,12.60
2019-04-30T19:29:49.109Z,12.27
2019-04-30T19:32:19.772Z,12.87
2019-04-30T19:34:49.224Z,11.53
2019-04-30T19:37:19.697Z,11.47
2019-04-30T19:39:51.106Z,12.93
2019-04-30T19:42:20.564Z,13.50
2019-04-30T19:44:58.844Z,12.80
2019-04-30T19:47:20.952Z,12.80
2019-04-30T19:49:50.305Z,13.93
2019-04-30T19:52:19.784Z,14.00
2019-04-30T19:54:49.155Z,12.40
2019-04-30T19:57:19.136Z,12.03
2019-04-30T19:59:49.193Z,13.50
2019-04-30T20:02:19.111Z,12.80
2019-04-30T20:04:49.790Z,13.30
2019-04-30T20:07:19.577Z,13.00
2019-04-30T20:10:00.179Z,13.60
2019-04-30T20:12:19.995Z,13.63
2019-04-30T20:14:49.662Z,13.47
2019-04-30T20:17:19.450Z,13.47
2019-04-30T20:19:49.039Z,12.73
2019-04-30T20:22:20.724Z,13.93
2019-04-30T20:24:50.285Z,13.10
2019-04-30T20:27:19.609Z,14.50
2019-04-30T20:29:51.730Z,15.47
2019-04-30T20:32:35.383Z,14.53
2019-04-30T20:34:56.610Z,14.40
2019-04-30T20:37:26.011Z,14.47
2019-04-30T20:39:58.569Z,15.00
2019-04-30T20:42:28.074Z,14.73
2019-04-30T20:44:58.907Z,13.93
2019-04-30T20:47:30.006Z,15.77
2019-04-30T20:49:59.562Z,15.70
2019-04-30T20:52:29.115Z,17.37
2019-04-30T20:54:58.404Z,16.67
2019-04-30T20:57:29.463Z,16.10
2019-04-30T20:59:59.934Z,15.47
2019-04-30T21:02:29.438Z,14.73
2019-04-30T21:04:58.806Z,15.47
2019-04-30T21:07:28.132Z,15.07
2019-04-30T21:09:58.300Z,18.00
2019-04-30T21:12:28.877Z,17.97
2019-04-30T21:14:59.633Z,16.80
2019-04-30T21:17:28.991Z,17.17
2019-04-30T21:19:58.803Z,16.53
2019-04-30T21:22:29.692Z,17.77
2019-04-30T21:25:00.584Z,15.57
2019-04-30T21:27:30.480Z,16.13
2019-04-30T21:30:00.062Z,16.80
2019-04-30T21:32:48.522Z,15.77
2019-04-30T21:35:25.873Z,17.90
2019-04-30T21:37:58.989Z,16.40
2019-04-30T21:40:29.640Z,17.27
2019-04-30T21:42:59.302Z,17.27
2019-04-30T21:45:29.143Z,17.57
2019-04-30T21:48:01.515Z,18.00
2019-04-30T21:50:30.959Z,17.77
2019-04-30T21:53:00.504Z,18.50
2019-04-30T21:55:29.859Z,19.37
2019-04-30T21:57:59.508Z,19.20
2019-04-30T22:00:32.374Z,20.40
2019-04-30T22:03:04.427Z,18.63
2019-04-30T22:05:33.851Z,19.97
2019-04-30T22:08:04.518Z,21.47
2019-04-30T22:10:36.933Z,20.93
2019-04-30T22:13:08.765Z,19.47
2019-04-30T22:15:37.588Z,22.23
2019-04-30T22:18:06.919Z,22.00
2019-04-30T22:20:36.264Z,21.37
2019-04-30T22:23:05.663Z,22.87
2019-04-30T22:25:35.024Z,24.80
2019-04-30T22:28:04.341Z,22.40
2019-04-30T22:30:33.685Z,22.00
2019-04-30T22:33:02.998Z,22.60
2019-04-30T22:35:33.981Z,20.53
2019-04-30T22:38:13.887Z,21.67
2019-04-30T22:40:43.218Z,21.10
2019-04-30T22:43:12.541Z,21.97
2019-04-30T22:45:45.975Z,23.50
2019-04-30T22:48:15.290Z,21.33
2019-04-30T22:50:45.006Z,23.50
2019-04-30T22:53:14.325Z,22.70
2019-04-30T22:55:43.745Z,23.30
2019-04-30T22:58:13.133Z,22.20
2019-04-30T23:00:44.345Z,23.07
2019-04-30T23:03:15.442Z,21.23
2019-04-30T23:05:44.846Z,22.20
2019-04-30T23:08:14.228Z,23.30
2019-04-30T23:10:43.577Z,22.83
2019-04-30T23:13:12.888Z,23.07
2019-04-30T23:15:42.270Z,22.57
2019-04-30T23:18:11.619Z,22.70
2019-04-30T23:20:40.933Z,25.17
2019-04-30T23:23:10.342Z,23.17
2019-04-30T23:25:39.656Z,23.17
2019-04-30T23:28:09.242Z,23.60
2019-04-30T23:30:38.631Z,24.73
2019-04-30T23:33:07.966Z,24.23
2019-04-30T23:35:37.271Z,22.37
2019-04-30T23:38:06.677Z,23.00
2019-04-30T23:40:52.525Z,23.10
2019-04-30T23:43:22.188Z,22.40
2019-04-30T23:45:51.584Z,23.57
2019-04-30T23:48:20.920Z,23.40
2019-04-30T23:50:50.252Z,23.70
2019-04-30T23:53:19.582Z,23.43
2019-04-30T23:55:48.894Z,24.40
2019-04-30T23:58:18.250Z,23.77
